Time;durP1;ratioP1;P1;durP2;ratioP2;P2;SDS_P1;SDS_P2;PMS_P1;PMS_P2;Temp;Humidity;BMP_temperature;BMP_pressure;BME280_temperature;BME280_humidity;BME280_pressure;Samples;Min_cycle;Max_cycle;Signal;HPM_P1;HPM_P2
2021/12/11 00:01:52;;;;;;;24.35;15.83;;;;;;;9.93;100.00;101236.47;1668569;85;21056;-67
2021/12/11 00:04:29;;;;;;;23.95;15.68;;;;;;;9.94;100.00;101227.05;1669055;85;21044;-66
2021/12/11 00:07:02;;;;;;;24.15;15.72;;;;;;;9.98;100.00;101231.20;1679083;85;20996;-66
2021/12/11 00:09:49;;;;;;;24.77;15.63;;;;;;;9.96;100.00;101227.84;1670388;84;21068;-66
2021/12/11 00:12:23;;;;;;;23.42;15.32;;;;;;;9.98;100.00;101224.77;1679708;84;21102;-66
2021/12/11 00:15:03;;;;;;;25.37;16.32;;;;;;;10.03;100.00;101226.75;1671694;84;21032;-66
2021/12/11 00:17:33;;;;;;;27.30;16.73;;;;;;;10.02;100.00;101229.77;1678655;84;21084;-66
2021/12/11 00:20:03;;;;;;;23.27;14.63;;;;;;;10.00;100.00;101216.12;1678450;84;21039;-66
2021/12/11 00:22:31;;;;;;;21.23;15.18;;;;;;;10.02;100.00;101219.48;1671236;85;21040;-66
2021/12/11 00:25:05;;;;;;;24.80;15.80;;;;;;;10.00;100.00;101211.42;1671060;84;21143;-66
2021/12/11 00:27:34;;;;;;;22.27;15.23;;;;;;;9.98;100.00;101211.91;1678851;84;21619;-66
2021/12/11 00:30:05;;;;;;;25.02;15.43;;;;;;;9.97;100.00;101214.91;1679195;84;21028;-66
2021/12/11 00:32:35;;;;;;;23.80;15.60;;;;;;;9.96;100.00;101206.81;1669094;85;21077;-66
2021/12/11 00:35:13;;;;;;;25.30;15.53;;;;;;;9.94;100.00;101209.04;1679603;84;21048;-66
2021/12/11 00:37:40;;;;;;;24.30;15.65;;;;;;;9.93;100.00;101208.62;1672388;85;21115;-66
2021/12/11 00:40:19;;;;;;;25.17;16.23;;;;;;;9.92;100.00;101209.53;1655387;85;21691;-66
2021/12/11 00:42:49;;;;;;;23.50;14.83;;;;;;;9.87;100.00;101183.92;1679927;84;21044;-66
2021/12/11 00:45:22;;;;;;;24.80;15.58;;;;;;;9.92;100.00;101206.96;1679816;85;21056;-66
2021/12/11 00:47:54;;;;;;;24.43;15.03;;;;;;;9.89;100.00;101200.61;1680602;84;21543;-66
2021/12/11 00:50:26;;;;;;;23.15;14.75;;;;;;;9.94;100.00;101211.16;1668601;85;21056;-66
2021/12/11 00:53:01;;;;;;;22.32;14.73;;;;;;;9.92;100.00;101203.10;1677866;84;21107;-66
2021/12/11 00:55:32;;;;;;;22.50;14.60;;;;;;;9.91;100.00;101206.09;1677179;84;21072;-66
2021/12/11 00:58:20;;;;;;;22.13;14.10;;;;;;;9.88;100.00;101198.94;1678873;85;21064;-66
2021/12/11 01:01:11;;;;;;;21.35;13.80;;;;;;;9.82;100.00;101195.65;1677628;84;21603;-66
2021/12/11 01:04:02;;;;;;;23.52;13.93;;;;;;;9.75;100.00;101195.45;1679535;84;21138;-66
2021/12/11 01:06:54;;;;;;;22.90;14.23;;;;;;;9.73;100.00;101202.37;1678569;84;21166;-66
2021/12/11 01:09:27;;;;;;;20.40;13.25;;;;;;;9.67;100.00;101199.98;1677758;84;21063;-66
2021/12/11 01:12:05;;;;;;;18.60;13.13;;;;;;;9.57;100.00;101204.53;1680096;84;21588;-67
2021/12/11 01:14:51;;;;;;;20.90;14.07;;;;;;;9.54;100.00;101194.78;1680214;84;21052;-66
2021/12/11 01:17:22;;;;;;;;;;;;;;;9.51;100.00;101190.58;1670396;84;21568;-66
2021/12/11 01:19:52;;;;;;;;;;;;;;;9.40;100.00;101188.29;1672705;84;20424;-66
2021/12/11 01:22:34;;;;;;;23.45;14.60;;;;;;;9.39;100.00;101178.91;1670576;84;20098;-66
2021/12/11 01:25:18;;;;;;;24.67;15.75;;;;;;;9.37;100.00;101191.41;1679421;84;21072;-66
2021/12/11 01:27:50;;;;;;;22.75;14.43;;;;;;;9.33;100.00;101185.96;1679046;84;21215;-67
2021/12/11 01:30:26;;;;;;;21.37;14.40;;;;;;;9.28;100.00;101183.50;1679192;84;21032;-66
2021/12/11 01:32:53;;;;;;;24.57;15.00;;;;;;;9.28;100.00;101177.08;1678256;84;21064;-66
2021/12/11 01:35:21;;;;;;;23.77;14.15;;;;;;;9.19;100.00;101153.78;1678972;84;21020;-65
2021/12/11 01:37:50;;;;;;;20.82;13.78;;;;;;;9.19;100.00;101151.20;1679387;84;21111;-66
2021/12/11 01:40:21;;;;;;;21.20;13.22;;;;;;;9.11;100.00;101146.73;1679770;85;21087;-66
2021/12/11 01:42:48;;;;;;;22.07;13.58;;;;;;;9.11;100.00;101145.45;1678794;85;21108;-66
2021/12/11 01:45:17;;;;;;;23.77;13.95;;;;;;;9.12;100.00;101143.71;1680585;84;21012;-66
2021/12/11 01:47:47;;;;;;;20.90;13.48;;;;;;;9.06;100.00;101141.31;1668417;85;21076;-66
2021/12/11 01:50:30;;;;;;;22.52;13.72;;;;;;;8.98;100.00;101137.66;1668697;84;21578;-66
2021/12/11 01:53:14;;;;;;;21.40;13.62;;;;;;;8.92;100.00;101139.12;1679543;84;21071;-66
2021/12/11 01:55:46;;;;;;;19.57;12.70;;;;;;;8.92;100.00;101151.54;1676693;84;21099;-66
2021/12/11 01:58:17;;;;;;;20.68;12.85;;;;;;;8.93;100.00;101148.52;1672942;85;21013;-66
2021/12/11 02:00:53;;;;;;;20.15;12.30;;;;;;;8.87;100.00;101151.25;1669954;85;21092;-66
2021/12/11 02:03:25;;;;;;;19.60;12.58;;;;;;;8.87;100.00;101149.97;1678952;84;21583;-66
2021/12/11 02:05:52;;;;;;;18.10;11.90;;;;;;;8.89;100.00;101144.35;1672201;84;21060;-66
2021/12/11 02:08:24;;;;;;;19.73;12.68;;;;;;;8.81;100.00;101142.81;1678501;84;21070;-66
2021/12/11 02:11:05;;;;;;;19.12;12.28;;;;;;;8.83;100.00;101148.75;1679474;84;21063;-66
2021/12/11 02:13:43;;;;;;;21.93;12.90;;;;;;;8.78;100.00;101147.21;1678945;84;21060;-66
2021/12/11 02:16:20;;;;;;;20.30;12.60;;;;;;;8.70;100.00;101146.54;1678085;84;21063;-67
2021/12/11 02:18:52;;;;;;;23.90;13.28;;;;;;;8.62;100.00;101149.33;1680657;84;21107;-66
2021/12/11 02:21:31;;;;;;;22.75;13.48;;;;;;;8.62;100.00;101145.03;1678694;84;21072;-66
2021/12/11 02:24:04;;;;;;;18.92;12.00;;;;;;;8.60;100.00;101152.37;1678894;84;21124;-66
2021/12/11 02:26:33;;;;;;;21.57;12.87;;;;;;;8.60;100.00;101156.23;1678777;84;21159;-66
2021/12/11 02:29:17;;;;;;;22.82;12.88;;;;;;;8.56;100.00;101154.62;1679799;84;21071;-66
2021/12/11 02:31:55;;;;;;;21.02;12.70;;;;;;;8.60;100.00;101153.21;1675008;83;21064;-66
2021/12/11 02:34:52;;;;;;;21.85;12.55;;;;;;;8.61;100.00;101161.30;1680106;84;21063;-65
2021/12/11 02:37:36;;;;;;;24.30;14.68;;;;;;;8.55;100.00;101164.47;1670516;84;21056;-66
2021/12/11 02:40:10;;;;;;;21.80;12.58;;;;;;;8.52;100.00;101164.56;1668809;85;21072;-66
2021/12/11 02:42:49;;;;;;;25.60;12.40;;;;;;;8.50;100.00;101163.76;1677239;84;21040;-66
2021/12/11 02:45:21;;;;;;;26.73;13.43;;;;;;;8.54;100.00;101172.61;1663631;84;21099;-65
2021/12/11 02:47:59;;;;;;;22.00;13.03;;;;;;;8.53;100.00;101163.66;1678759;84;21068;-66
2021/12/11 02:50:49;;;;;;;26.05;13.60;;;;;;;8.50;100.00;101160.74;1677409;84;21135;-66
2021/12/11 02:53:24;;;;;;;23.27;13.30;;;;;;;8.56;100.00;101167.00;1677177;84;21095;-66
2021/12/11 02:56:08;;;;;;;22.95;13.93;;;;;;;8.59;100.00;101168.64;1678985;84;21048;-66
2021/12/11 02:58:40;;;;;;;22.17;13.43;;;;;;;8.60;100.00;101162.20;1661070;85;21064;-66
2021/12/11 03:01:26;;;;;;;25.95;14.07;;;;;;;8.56;100.00;101167.45;1679261;84;21813;-66
2021/12/11 03:03:56;;;;;;;23.02;13.20;;;;;;;8.55;100.00;101169.60;1676135;85;21084;-66
2021/12/11 03:06:24;;;;;;;23.57;13.50;;;;;;;8.58;100.00;101167.80;1679231;84;21064;-66
2021/12/11 03:08:55;;;;;;;23.00;13.80;;;;;;;8.58;100.00;101166.52;1677769;84;21076;-67
2021/12/11 03:11:27;;;;;;;27.00;15.10;;;;;;;8.57;100.00;101167.39;1678643;84;21068;-66
2021/12/11 03:13:56;;;;;;;24.87;13.93;;;;;;;8.57;100.00;101167.84;1679666;85;21143;-66
2021/12/11 03:16:28;;;;;;;22.55;13.43;;;;;;;8.53;100.00;101168.34;1680226;84;21567;-66
2021/12/11 03:18:59;;;;;;;23.50;13.40;;;;;;;8.49;100.00;101162.05;1679621;84;21059;-65
2021/12/11 03:21:27;;;;;;;22.73;13.05;;;;;;;8.45;100.00;101168.98;1679696;84;21060;-66
2021/12/11 03:23:55;;;;;;;23.02;13.10;;;;;;;8.45;100.00;101175.84;1679827;84;21132;-66
2021/12/11 03:26:24;;;;;;;23.38;13.68;;;;;;;8.47;100.00;101170.23;1679595;84;21068;-66
2021/12/11 03:28:52;;;;;;;21.70;12.63;;;;;;;8.46;100.00;101169.40;1679582;84;21048;-66
2021/12/11 03:31:19;;;;;;;22.15;13.03;;;;;;;8.42;100.00;101181.45;1673331;84;21040;-66
2021/12/11 03:33:51;;;;;;;22.93;13.28;;;;;;;8.39;100.00;101175.52;1672658;85;21087;-66
2021/12/11 03:36:22;;;;;;;24.27;14.33;;;;;;;8.30;100.00;101170.62;1678902;84;21067;-66
2021/12/11 03:38:56;;;;;;;21.33;13.20;;;;;;;8.31;100.00;101182.55;1648478;86;21555;-66
2021/12/11 03:41:24;;;;;;;19.25;12.95;;;;;;;8.36;100.00;101186.70;1647588;86;21018;-66
2021/12/11 03:43:52;;;;;;;22.22;12.63;;;;;;;8.34;100.00;101171.78;1678566;84;21080;-66
2021/12/11 03:46:22;;;;;;;20.97;12.20;;;;;;;8.35;100.00;101177.75;1678332;84;21036;-67
2021/12/11 03:48:57;;;;;;;19.57;12.35;;;;;;;8.32;100.00;101166.30;1678852;84;21028;-66
2021/12/11 03:51:30;;;;;;;22.13;13.10;;;;;;;8.24;100.00;101172.89;1679906;84;21631;-67
2021/12/11 03:53:59;;;;;;;17.62;10.95;;;;;;;8.25;100.00;101175.00;1679321;84;21051;-66
2021/12/11 03:56:28;;;;;;;18.80;11.20;;;;;;;8.21;100.00;101174.22;1669218;85;21048;-66
2021/12/11 03:58:55;;;;;;;18.52;11.45;;;;;;;8.12;100.00;101171.89;1668266;85;21084;-66
2021/12/11 04:01:30;;;;;;;20.48;11.93;;;;;;;8.09;100.00;101180.51;1679200;84;21076;-66
2021/12/11 04:04:02;;;;;;;20.17;12.33;;;;;;;8.13;100.00;101177.41;1667965;85;21088;-67
2021/12/11 04:06:30;;;;;;;17.75;10.85;;;;;;;8.08;100.00;101173.67;1678851;84;21071;-67
2021/12/11 04:08:58;;;;;;;19.85;11.55;;;;;;;8.01;100.00;101168.30;1672296;85;21056;-67
2021/12/11 04:11:32;;;;;;;19.32;11.53;;;;;;;8.00;100.00;101169.16;1676261;85;21079;-67
2021/12/11 04:14:04;;;;;;;21.40;12.73;;;;;;;7.99;100.00;101174.73;1679052;85;21500;-67
2021/12/11 04:16:33;;;;;;;17.67;11.28;;;;;;;7.89;100.00;101174.98;1671604;85;21115;-67
2021/12/11 04:19:03;;;;;;;17.82;11.18;;;;;;;7.82;100.00;101157.15;1671727;85;21104;-67
2021/12/11 04:21:30;;;;;;;20.35;11.60;;;;;;;7.79;100.00;101173.90;1670145;85;21572;-67
2021/12/11 04:23:58;;;;;;;19.07;11.25;;;;;;;7.84;100.00;101176.34;1678190;85;21095;-67
2021/12/11 04:26:25;;;;;;;19.02;11.10;;;;;;;7.77;100.00;101181.22;1677938;84;21174;-67
2021/12/11 04:28:53;;;;;;;18.65;11.83;;;;;;;7.76;100.00;101182.08;1672702;84;21111;-67
2021/12/11 04:31:25;;;;;;;17.52;11.25;;;;;;;7.69;100.00;101172.86;1672255;84;21590;-67
2021/12/11 04:33:55;;;;;;;20.35;11.55;;;;;;;7.66;100.00;101181.88;1670519;84;21100;-68
2021/12/11 04:36:27;;;;;;;20.45;12.73;;;;;;;7.69;100.00;101175.42;1678347;85;21532;-68
2021/12/11 04:38:56;;;;;;;22.80;13.43;;;;;;;7.65;100.00;101166.95;1678771;84;21072;-68
2021/12/11 04:41:31;;;;;;;26.48;13.55;;;;;;;7.63;100.00;101169.98;1680602;84;21098;-67
2021/12/11 04:44:02;;;;;;;21.73;13.48;;;;;;;7.66;100.00;101164.77;1679814;84;21072;-68
2021/12/11 04:46:29;;;;;;;27.50;14.55;;;;;;;7.67;100.00;101170.31;1676897;85;21095;-68
2021/12/11 04:51:38;;;;;;;24.70;12.65;;;;;;;7.59;100.00;101177.33;1679897;84;21052;-68
2021/12/11 04:54:20;;;;;;;25.52;13.78;;;;;;;7.49;100.00;101171.55;1678127;84;21576;-68
2021/12/11 04:57:08;;;;;;;21.10;12.55;;;;;;;7.45;100.00;101170.37;1676170;84;21345;-68
2021/12/11 05:02:30;;;;;;;22.42;12.10;;;;;;;7.47;100.00;101185.27;1678855;85;21059;-67
2021/12/11 05:09:58;;;;;;;18.07;10.50;;;;;;;7.35;100.00;101182.06;1671033;85;21556;-67
2021/12/11 05:12:34;;;;;;;17.07;10.35;;;;;;;7.32;100.00;101175.73;1645583;86;21094;-68
2021/12/11 05:14:58;;;;;;;16.93;10.20;;;;;;;7.31;100.00;101189.41;1677389;85;21096;-67
2021/12/11 05:17:26;;;;;;;16.23;9.98;;;;;;;7.34;100.00;101182.95;1679466;84;21043;-68
2021/12/11 05:19:54;;;;;;;19.10;10.68;;;;;;;7.27;100.00;101180.09;1679528;85;21112;-67
2021/12/11 05:22:22;;;;;;;17.90;10.60;;;;;;;7.28;100.00;101173.24;1669598;84;21071;-68
2021/12/11 05:24:55;;;;;;;18.20;10.90;;;;;;;7.25;100.00;101172.87;1678734;85;21468;-67
2021/12/11 05:27:23;;;;;;;17.80;10.93;;;;;;;7.28;100.00;101176.67;1679403;84;21686;-66
2021/12/11 05:29:51;;;;;;;27.07;12.80;;;;;;;7.31;100.00;101179.16;1679721;84;21060;-67
2021/12/11 05:32:23;;;;;;;22.62;12.35;;;;;;;7.33;100.00;101185.53;1677907;84;21067;-66
2021/12/11 05:34:50;;;;;;;22.37;11.57;;;;;;;7.25;100.00;101184.40;1678915;84;21088;-67
2021/12/11 05:37:19;;;;;;;21.77;12.43;;;;;;;7.22;100.00;101194.72;1679429;84;21115;-67
2021/12/11 05:39:48;;;;;;;21.20;12.25;;;;;;;7.21;100.00;101198.13;1670626;85;21065;-68
2021/12/11 05:42:16;;;;;;;23.98;11.60;;;;;;;7.14;100.00;101201.70;1679681;84;21520;-67
2021/12/11 05:44:44;;;;;;;20.12;11.08;;;;;;;7.18;100.00;101211.02;1679588;84;21354;-67
2021/12/11 05:47:12;;;;;;;18.62;10.08;;;;;;;7.12;100.00;101194.48;1678464;84;21075;-67
2021/12/11 05:49:41;;;;;;;16.50;9.85;;;;;;;7.01;100.00;101186.98;1680343;84;21071;-66
2021/12/11 05:52:10;;;;;;;18.12;10.50;;;;;;;7.04;100.00;101212.98;1671924;85;21093;-67
2021/12/11 05:54:40;;;;;;;17.77;10.60;;;;;;;7.05;100.00;101194.17;1679304;84;21555;-66
2021/12/11 05:57:12;;;;;;;20.48;11.80;;;;;;;7.03;100.00;101196.76;1677932;85;21059;-67
2021/12/11 05:59:42;;;;;;;18.45;10.68;;;;;;;7.01;100.00;101201.06;1678387;84;21040;-67
2021/12/11 06:02:20;;;;;;;16.10;9.60;;;;;;;6.92;100.00;101202.52;1674987;84;21083;-67
2021/12/11 06:04:51;;;;;;;16.67;10.43;;;;;;;6.92;100.00;101200.80;1678814;84;21111;-67
2021/12/11 06:07:22;;;;;;;16.42;9.75;;;;;;;6.92;100.00;101202.08;1678632;84;21100;-67
2021/12/11 06:09:54;;;;;;;14.68;10.00;;;;;;;6.93;100.00;101220.83;1678905;84;21532;-67
2021/12/11 06:12:23;;;;;;;16.67;9.75;;;;;;;6.96;100.00;101215.23;1679913;84;22931;-67
2021/12/11 06:14:52;;;;;;;16.35;9.88;;;;;;;6.94;100.00;101236.62;1680468;84;21574;-67
2021/12/11 06:17:23;;;;;;;20.40;10.50;;;;;;;7.01;100.00;101258.25;1679695;84;21040;-66
2021/12/11 06:19:53;;;;;;;17.07;10.00;;;;;;;7.07;100.00;101277.75;1678387;84;21532;-66
2021/12/11 06:22:28;;;;;;;19.98;10.90;;;;;;;7.05;100.00;101262.85;1668903;85;21097;-67
2021/12/11 06:24:57;;;;;;;23.12;10.23;;;;;;;7.06;100.00;101257.32;1675905;84;21063;-66
2021/12/11 06:27:26;;;;;;;16.87;10.25;;;;;;;6.99;100.00;101268.08;1670440;85;21159;-66
2021/12/11 06:29:53;;;;;;;17.57;10.00;;;;;;;6.94;100.00;101275.01;1679979;85;21084;-66
2021/12/11 06:32:22;;;;;;;19.35;10.63;;;;;;;7.03;100.00;101267.16;1672053;85;21598;-66
2021/12/11 06:34:52;;;;;;;21.77;11.83;;;;;;;7.10;100.00;101270.03;1669070;85;21092;-67
2021/12/11 06:37:21;;;;;;;19.10;11.08;;;;;;;7.06;100.00;101270.13;1669205;86;21178;-66
2021/12/11 06:39:51;;;;;;;17.62;10.50;;;;;;;7.15;100.00;101271.23;1677397;84;21072;-67
2021/12/11 06:42:21;;;;;;;19.60;11.03;;;;;;;7.08;100.00;101273.50;1671532;84;21090;-66
2021/12/11 06:44:49;;;;;;;25.30;12.75;;;;;;;7.14;100.00;101279.80;1677256;84;21092;-66
2021/12/11 06:47:18;;;;;;;22.60;12.43;;;;;;;7.06;100.00;101276.08;1677956;84;21532;-66
2021/12/11 06:49:45;;;;;;;19.35;11.70;;;;;;;7.06;100.00;101272.23;1679320;84;21103;-67
2021/12/11 06:52:17;;;;;;;17.32;11.20;;;;;;;7.03;100.00;101268.44;1678498;84;21084;-66
2021/12/11 06:54:46;;;;;;;20.72;11.80;;;;;;;6.95;100.00;101267.28;1678978;84;21178;-67
2021/12/11 06:57:13;;;;;;;21.33;10.93;;;;;;;7.04;100.00;101266.30;1678846;84;21040;-67
2021/12/11 06:59:40;;;;;;;21.45;10.60;;;;;;;7.05;100.00;101267.14;1677719;85;21052;-67
2021/12/11 07:02:08;;;;;;;21.50;11.60;;;;;;;7.06;100.00;101270.96;1679134;85;21097;-66
2021/12/11 07:04:34;;;;;;;16.80;10.32;;;;;;;7.04;100.00;101271.42;1669593;84;21123;-67
2021/12/11 07:07:02;;;;;;;20.20;11.05;;;;;;;7.13;100.00;101269.12;1679087;84;21099;-67
2021/12/11 07:09:31;;;;;;;23.73;12.37;;;;;;;7.20;100.00;101271.56;1679803;85;21048;-67
2021/12/11 07:12:00;;;;;;;23.75;11.30;;;;;;;7.34;100.00;101270.03;1679143;84;21072;-67
2021/12/11 07:14:31;;;;;;;19.57;11.15;;;;;;;7.43;100.00;101281.37;1676945;84;21644;-68
2021/12/11 07:17:00;;;;;;;19.25;10.45;;;;;;;7.60;100.00;101272.11;1670334;84;22428;-68
2021/12/11 07:19:27;;;;;;;18.45;10.53;;;;;;;7.60;100.00;101272.11;1667808;85;21612;-67
2021/12/11 07:21:55;;;;;;;18.30;9.55;;;;;;;7.55;100.00;101276.45;1668127;84;20994;-67
2021/12/11 07:24:30;;;;;;;17.98;10.05;;;;;;;7.61;100.00;101284.47;1678498;84;21489;-67
2021/12/11 07:26:58;;;;;;;24.90;14.87;;;;;;;7.58;100.00;101283.23;1670781;84;21086;-67
2021/12/11 07:29:25;;;;;;;31.33;15.88;;;;;;;7.59;100.00;101282.38;1667968;83;21027;-67
2021/12/11 07:31:53;;;;;;;38.60;19.85;;;;;;;7.56;100.00;101276.02;1674395;84;21160;-67
2021/12/11 07:34:21;;;;;;;20.02;11.50;;;;;;;7.59;100.00;101290.90;1677627;84;21095;-67
2021/12/11 07:36:50;;;;;;;19.10;11.08;;;;;;;7.62;100.00;101292.14;1678535;83;21139;-67
2021/12/11 07:39:19;;;;;;;21.57;12.73;;;;;;;7.80;100.00;101292.19;1674963;83;21548;-67
2021/12/11 07:41:47;;;;;;;19.17;11.68;;;;;;;7.96;100.00;101293.17;1680892;83;21560;-66
2021/12/11 07:44:14;;;;;;;21.20;11.22;;;;;;;8.10;100.00;101314.23;1673127;84;21013;-67
2021/12/11 07:46:42;;;;;;;22.05;12.75;;;;;;;8.14;100.00;101306.89;1666476;85;21011;-67
2021/12/11 07:49:08;;;;;;;19.35;11.00;;;;;;;8.26;100.00;101298.09;1672179;85;21538;-67
2021/12/11 07:51:37;;;;;;;16.52;10.05;;;;;;;8.34;100.00;101306.91;1671625;85;21058;-67
2021/12/11 07:54:08;;;;;;;17.52;9.38;;;;;;;8.46;100.00;101307.11;1670559;85;21086;-66
2021/12/11 07:56:36;;;;;;;11.48;7.87;;;;;;;8.41;100.00;101317.45;1670674;84;21062;-67
2021/12/11 07:59:06;;;;;;;14.60;8.35;;;;;;;8.42;100.00;101315.31;1670575;84;21066;-66
2021/12/11 08:01:38;;;;;;;16.25;9.88;;;;;;;8.33;100.00;101324.45;1674252;85;21070;-66
2021/12/11 08:04:06;;;;;;;19.98;11.30;;;;;;;8.27;100.00;101325.41;1674524;84;21048;-66
2021/12/11 08:06:35;;;;;;;15.40;9.35;;;;;;;8.26;100.00;101314.77;1666959;85;21000;-67
2021/12/11 08:09:08;;;;;;;15.63;8.20;;;;;;;8.24;100.00;101316.52;1665279;84;21533;-67
2021/12/11 08:11:35;;;;;;;14.98;8.68;;;;;;;8.16;100.00;101294.87;1688317;84;21310;-67
2021/12/11 08:14:03;;;;;;;13.88;8.95;;;;;;;8.06;100.00;101272.88;1675318;84;21027;-67
2021/12/11 08:16:36;;;;;;;16.85;9.10;;;;;;;7.98;100.00;101252.52;1675095;85;21114;-67
2021/12/11 08:19:05;;;;;;;14.07;8.70;;;;;;;7.95;100.00;101251.77;1674277;84;21531;-67
2021/12/11 08:21:32;;;;;;;13.20;8.28;;;;;;;7.89;100.00;101264.71;1676141;84;21042;-66
2021/12/11 08:24:04;;;;;;;19.37;10.48;;;;;;;7.92;100.00;101279.56;1675005;84;21629;-67
2021/12/11 08:26:28;;;;;;;20.52;11.30;;;;;;;8.01;100.00;101282.40;1671751;84;21654;-67
2021/12/11 08:28:55;;;;;;;18.25;11.18;;;;;;;8.08;100.00;101286.50;1673596;85;21066;-67
2021/12/11 08:31:23;;;;;;;21.20;12.37;;;;;;;8.21;100.00;101287.08;1674576;84;21074;-67
2021/12/11 08:33:52;;;;;;;26.10;15.10;;;;;;;8.33;100.00;101279.55;1672761;84;21079;-67
2021/12/11 08:36:22;;;;;;;18.87;11.78;;;;;;;8.41;100.00;101266.14;1676550;83;21009;-67
2021/12/11 08:38:50;;;;;;;24.40;13.22;;;;;;;8.42;100.00;101263.55;1674197;84;21146;-67
2021/12/11 08:41:22;;;;;;;14.25;8.95;;;;;;;8.39;100.00;101239.23;1670042;84;21042;-67
2021/12/11 08:43:58;;;;;;;20.12;11.22;;;;;;;8.26;100.00;101231.85;1678659;83;21137;-67
2021/12/11 08:46:27;;;;;;;22.07;10.23;;;;;;;8.25;100.00;101259.20;1689713;84;21031;-67
2021/12/11 08:48:49;;;;;;;16.55;9.83;;;;;;;8.32;100.00;101265.05;1682718;84;21009;-67
2021/12/11 08:51:21;;;;;;;14.75;8.98;;;;;;;8.39;100.00;101243.50;1686181;84;21036;-67
2021/12/11 08:53:50;;;;;;;19.55;10.10;;;;;;;8.33;100.00;101243.64;1667322;84;21450;-67
2021/12/11 08:56:19;;;;;;;28.40;14.43;;;;;;;8.30;100.00;101266.36;1674747;85;21026;-66
2021/12/11 08:58:50;;;;;;;20.43;10.80;;;;;;;8.44;100.00;101251.98;1673378;84;21067;-67
2021/12/11 09:01:28;;;;;;;21.37;10.60;;;;;;;8.48;100.00;101266.42;1674723;84;21338;-66
2021/12/11 09:04:10;;;;;;;18.92;11.10;;;;;;;8.61;100.00;101266.52;1674102;85;21490;-67
2021/12/11 09:06:44;;;;;;;20.40;10.63;;;;;;;8.71;100.00;101265.86;1673134;84;21098;-66
2021/12/11 09:09:22;;;;;;;15.50;9.58;;;;;;;8.82;100.00;101252.34;1673958;85;21149;-67
2021/12/11 09:12:04;;;;;;;12.58;8.60;;;;;;;8.85;100.00;101249.30;1673722;85;21078;-67
2021/12/11 09:14:40;;;;;;;21.60;11.15;;;;;;;8.73;100.00;101249.15;1675139;84;21066;-67
2021/12/11 09:17:17;;;;;;;19.80;11.03;;;;;;;8.77;100.00;101253.33;1674227;84;21027;-67
2021/12/11 09:19:55;;;;;;;18.30;10.15;;;;;;;8.84;100.00;101251.03;1674877;84;21054;-66
2021/12/11 09:22:30;;;;;;;19.12;10.70;;;;;;;8.98;100.00;101264.36;1661507;84;21063;-67
2021/12/11 09:25:06;;;;;;;18.62;10.65;;;;;;;9.01;100.00;101261.70;1675876;84;20992;-67
2021/12/11 09:27:45;;;;;;;17.45;10.25;;;;;;;9.03;100.00;101262.50;1681495;84;21697;-67
2021/12/11 09:30:23;;;;;;;16.62;9.80;;;;;;;8.99;100.00;101276.30;1668207;83;21530;-67
2021/12/11 09:32:58;;;;;;;16.77;10.23;;;;;;;8.87;100.00;101281.75;1670106;84;21504;-66
2021/12/11 09:35:37;;;;;;;14.28;9.63;;;;;;;8.88;100.00;101277.44;1688891;83;21064;-67
2021/12/11 09:38:27;;;;;;;16.70;10.03;;;;;;;8.75;100.00;101274.34;1682196;84;21005;-66
2021/12/11 09:40:55;;;;;;;15.05;9.00;;;;;;;8.62;100.00;101273.36;1679402;84;21003;-66
2021/12/11 09:43:46;;;;;;;17.30;10.00;;;;;;;8.59;100.00;101286.24;1683855;84;21029;-67
2021/12/11 09:46:18;;;;;;;17.10;10.15;;;;;;;8.54;100.00;101280.84;1680794;84;21058;-66
2021/12/11 09:48:47;;;;;;;20.02;10.15;;;;;;;8.40;100.00;101279.83;1681846;84;21100;-67
2021/12/11 09:51:20;;;;;;;20.32;10.98;;;;;;;8.32;100.00;101277.88;1685314;84;21500;-66
2021/12/11 09:53:52;;;;;;;19.45;10.53;;;;;;;8.30;100.00;101272.78;1680850;84;21023;-66
2021/12/11 09:56:37;;;;;;;18.80;10.08;;;;;;;8.29;100.00;101267.67;1679325;83;21532;-66
2021/12/11 09:59:08;;;;;;;17.50;10.28;;;;;;;8.25;100.00;101272.47;1682100;84;21070;-66
2021/12/11 10:01:40;;;;;;;17.57;11.20;;;;;;;8.26;100.00;101278.02;1655998;84;21016;-66
2021/12/11 10:04:17;;;;;;;17.92;10.98;;;;;;;8.25;100.00;101282.73;1682279;84;21555;-66
2021/12/11 10:07:34;;;;;;;26.70;13.72;;;;;;;8.33;100.00;101290.69;1686087;84;21598;-66
2021/12/11 10:09:26;;;;;;;37.45;20.88;;;;;;;8.32;100.00;101294.11;1672021;84;21024;-66
2021/12/11 10:11:59;;;;;;;25.68;13.62;;;;;;;8.33;100.00;101291.97;1681955;84;21562;-66
2021/12/11 10:14:34;;;;;;;18.82;11.88;;;;;;;8.36;100.00;101278.22;1672489;85;21085;-66
2021/12/11 10:17:08;;;;;;;18.50;11.65;;;;;;;8.29;100.00;101258.25;1664311;84;21136;-66
2021/12/11 10:19:38;;;;;;;17.40;10.08;;;;;;;8.21;100.00;101266.14;1672566;85;21120;-66
2021/12/11 10:22:16;;;;;;;26.75;14.47;;;;;;;8.26;100.00;101278.02;1670098;86;21503;-67
2021/12/11 10:24:45;;;;;;;26.77;14.05;;;;;;;8.34;100.00;101274.39;1671487;85;21093;-66
2021/12/11 10:27:16;;;;;;;19.42;11.63;;;;;;;8.44;100.00;101283.21;1672403;84;21112;-67
2021/12/11 10:29:45;;;;;;;19.77;12.53;;;;;;;8.43;100.00;101295.17;1670396;84;21016;-66
2021/12/11 10:32:20;;;;;;;17.15;10.65;;;;;;;8.46;100.00;101299.42;1673198;84;21064;-66
2021/12/11 10:34:51;;;;;;;18.92;12.53;;;;;;;8.40;100.00;101295.23;1673968;85;21035;-66
2021/12/11 10:37:26;;;;;;;23.40;13.58;;;;;;;8.33;100.00;101293.25;1670621;85;21000;-65
2021/12/11 10:39:56;;;;;;;18.25;11.18;;;;;;;8.32;100.00;101286.41;1673034;85;21612;-66
2021/12/11 10:42:24;;;;;;;17.70;10.53;;;;;;;8.33;100.00;101289.40;1671290;85;21055;-66
2021/12/11 10:44:54;;;;;;;16.20;10.60;;;;;;;8.36;100.00;101294.89;1670749;85;21108;-66
2021/12/11 10:47:33;;;;;;;17.98;10.88;;;;;;;8.30;100.00;101286.05;1673125;85;21080;-67
2021/12/11 10:50:05;;;;;;;16.80;10.15;;;;;;;8.35;100.00;101294.47;1672372;85;21067;-66
2021/12/11 10:52:32;;;;;;;17.25;8.88;;;;;;;8.44;100.00;101290.91;1673616;85;21028;-67
2021/12/11 10:55:03;;;;;;;15.58;10.15;;;;;;;8.50;100.00;101298.47;1670499;84;21366;-67
2021/12/11 10:57:32;;;;;;;17.73;10.43;;;;;;;8.39;100.00;101309.78;1659603;85;21064;-66
2021/12/11 11:00:03;;;;;;;16.05;9.80;;;;;;;8.39;100.00;101323.03;1627158;87;21072;-67
2021/12/11 11:02:33;;;;;;;12.50;8.68;;;;;;;8.37;100.00;101333.77;1626849;87;21101;-67
2021/12/11 11:05:08;;;;;;;15.85;9.60;;;;;;;8.22;100.00;101338.79;1658797;85;21131;-66
2021/12/11 11:07:36;;;;;;;14.58;8.95;;;;;;;8.23;100.00;101335.34;1657985;85;20983;-67
2021/12/11 11:10:09;;;;;;;15.45;9.28;;;;;;;8.23;100.00;101344.31;1692561;83;21134;-67
2021/12/11 11:12:36;;;;;;;13.15;8.35;;;;;;;8.25;100.00;101350.25;1684460;83;21011;-67
2021/12/11 11:15:04;;;;;;;16.95;9.23;;;;;;;8.26;100.00;101356.25;1684542;84;21100;-66
2021/12/11 11:17:34;;;;;;;16.15;8.93;;;;;;;8.30;100.00;101352.74;1676624;84;21581;-66
2021/12/11 11:20:09;;;;;;;14.73;8.88;;;;;;;8.33;100.00;101356.09;1678197;84;21061;-67
2021/12/11 11:22:40;;;;;;;14.40;8.63;;;;;;;8.26;100.00;101354.52;1690210;84;21100;-66
2021/12/11 11:25:15;;;;;;;15.30;9.40;;;;;;;8.18;100.00;101348.70;1695463;84;21056;-67
2021/12/11 11:27:45;;;;;;;12.28;8.10;;;;;;;8.15;100.00;101348.76;1687766;84;21108;-67
2021/12/11 11:30:20;;;;;;;16.30;8.93;;;;;;;8.13;100.00;101351.38;1697104;84;21643;-67
2021/12/11 11:32:48;;;;;;;13.85;8.45;;;;;;;8.20;100.00;101358.05;1695925;83;21587;-66
2021/12/11 11:35:19;;;;;;;12.73;7.65;;;;;;;8.19;100.00;101349.09;1689456;84;20985;-66
2021/12/11 11:37:51;;;;;;;13.75;8.43;;;;;;;8.08;100.00;101353.62;1690887;84;21521;-66
2021/12/11 11:40:30;;;;;;;14.58;8.38;;;;;;;7.98;100.00;101365.33;1689063;83;21056;-66
2021/12/11 11:42:58;;;;;;;13.43;8.40;;;;;;;8.08;100.00;101365.16;1698575;84;21053;-66
2021/12/11 11:45:27;;;;;;;14.10;8.28;;;;;;;8.18;100.00;101364.09;1671195;84;21101;-66